Time;durP1;ratioP1;P1;durP2;ratioP2;P2;SDS_P1;SDS_P2;PMS_P1;PMS_P2;Temp;Humidity;BMP_temperature;BMP_pressure;BME280_temperature;BME280_humidity;BME280_pressure;Samples;Min_cycle;Max_cycle;Signal;HPM_P1;HPM_P2
2023/06/17 00:00:06;;;;;;;11.75;5.80;;;;;;;17.36;60.14;99278.78;4404866;32;20421;-87
2023/06/17 00:02:32;;;;;;;9.43;5.72;;;;;;;17.21;60.13;99277.16;4413350;32;20129;-87
2023/06/17 00:04:57;;;;;;;9.73;5.78;;;;;;;17.24;60.14;99276.09;4407335;32;20396;-87
2023/06/17 00:07:22;;;;;;;10.27;5.97;;;;;;;17.34;60.14;99278.03;4407140;32;20122;-88
2023/06/17 00:09:48;;;;;;;7.60;5.53;;;;;;;17.47;60.15;99268.34;4405130;32;20466;-87
2023/06/17 00:12:13;;;;;;;8.02;5.30;;;;;;;17.67;60.15;99261.75;4423932;32;20140;-87
2023/06/17 00:14:40;;;;;;;8.70;4.90;;;;;;;17.60;60.15;99255.22;4407961;32;20230;-88
2023/06/17 00:17:08;;;;;;;9.25;5.53;;;;;;;17.54;60.15;99253.00;4424226;32;20124;-88
2023/06/17 00:19:35;;;;;;;8.48;5.22;;;;;;;17.53;60.16;99246.06;4408784;32;20144;-88
2023/06/17 00:22:00;;;;;;;9.25;4.80;;;;;;;17.47;60.15;99259.63;4410448;32;20253;-88
2023/06/17 00:24:26;;;;;;;7.40;4.97;;;;;;;17.49;60.15;99258.56;4408685;32;20455;-87
2023/06/17 00:26:51;;;;;;;7.97;5.20;;;;;;;17.55;60.16;99253.84;4397637;32;20498;-87
2023/06/17 00:29:17;;;;;;;8.18;4.80;;;;;;;17.49;60.15;99255.09;4423690;32;20140;-87
2023/06/17 00:31:42;;;;;;;9.30;4.60;;;;;;;17.40;60.14;99258.34;4409979;32;20106;-87
2023/06/17 00:34:07;;;;;;;10.15;4.70;;;;;;;17.46;60.14;99257.94;4395158;32;29109;-86
2023/06/17 00:36:33;;;;;;;7.47;4.25;;;;;;;17.32;60.14;99266.78;4397613;32;20157;-88
2023/06/17 00:38:58;;;;;;;6.68;4.80;;;;;;;17.34;60.14;99269.28;4409865;32;20179;-87
2023/06/17 00:41:24;;;;;;;6.47;4.28;;;;;;;17.37;60.13;99254.16;4394872;32;20416;-87
2023/06/17 00:43:49;;;;;;;8.93;4.47;;;;;;;17.28;60.13;99265.31;4393239;32;20446;-87
2023/06/17 00:46:38;;;;;;;7.97;4.30;;;;;;;17.44;60.14;99260.66;4394899;32;20097;-87
2023/06/17 00:49:04;;;;;;;8.27;4.65;;;;;;;17.33;60.14;99250.03;4405686;32;20475;-88
2023/06/17 00:51:32;;;;;;;6.60;4.65;;;;;;;17.36;60.14;99252.47;4390924;32;20145;-87
2023/06/17 00:53:58;;;;;;;7.82;4.97;;;;;;;17.27;60.13;99254.84;4407546;32;20101;-88
2023/06/17 00:56:25;;;;;;;8.18;4.55;;;;;;;17.38;60.14;99247.94;4391109;32;20093;-88
2023/06/17 00:58:50;;;;;;;9.63;4.80;;;;;;;17.19;60.13;99247.50;4394914;32;20375;-87
2023/06/17 01:01:17;;;;;;;8.07;4.25;;;;;;;17.34;60.14;99246.47;4390982;32;20424;-88
2023/06/17 01:03:43;;;;;;;7.32;4.70;;;;;;;17.28;60.13;99243.41;4409982;32;20131;-87
2023/06/17 01:06:12;;;;;;;8.18;4.47;;;;;;;17.12;60.12;99246.22;4409913;32;20117;-88
2023/06/17 01:09:05;;;;;;;6.25;4.50;;;;;;;17.25;60.13;99238.34;4382302;32;20637;-88
2023/06/17 01:11:30;;;;;;;7.95;4.53;;;;;;;17.18;60.13;99237.91;4404237;32;20125;-88
2023/06/17 01:13:56;;;;;;;6.28;4.20;;;;;;;17.26;60.13;99232.13;4394569;32;20158;-88
2023/06/17 01:16:21;;;;;;;7.20;4.55;;;;;;;17.25;60.13;99226.03;4403903;32;20149;-88
2023/06/17 01:18:48;;;;;;;9.32;4.80;;;;;;;17.14;60.12;99231.19;4396343;32;38893;-88
2023/06/17 01:21:17;;;;;;;9.02;5.12;;;;;;;17.10;60.13;99242.84;4395601;32;20395;-88
2023/06/17 01:23:42;;;;;;;10.65;5.12;;;;;;;17.12;60.13;99235.69;4395044;32;20540;-87
2023/06/17 01:26:08;;;;;;;8.25;5.37;;;;;;;17.09;60.13;99243.81;4391695;32;20087;-87
2023/06/17 01:28:34;;;;;;;7.47;4.35;;;;;;;17.12;60.12;99238.34;4394591;32;20086;-87
2023/06/17 01:30:59;;;;;;;7.70;4.80;;;;;;;17.07;60.12;99237.81;4405800;32;20098;-87
2023/06/17 01:33:25;;;;;;;7.28;4.45;;;;;;;17.15;60.12;99243.38;4394598;32;20158;-87
2023/06/17 01:36:02;;;;;;;12.60;4.85;;;;;;;17.17;60.13;99244.13;4408559;32;20130;-88
2023/06/17 01:38:33;;;;;;;9.75;4.87;;;;;;;17.00;60.11;99244.38;4397194;32;20136;-87
2023/06/17 01:41:04;;;;;;;11.12;4.32;;;;;;;17.08;60.13;99244.75;4396954;32;20187;-88
2023/06/17 01:43:31;;;;;;;7.53;4.53;;;;;;;17.14;60.12;99245.16;4394890;32;20122;-87
2023/06/17 01:45:57;;;;;;;7.20;4.72;;;;;;;17.01;60.12;99246.06;4408252;32;20093;-88
2023/06/17 01:48:23;;;;;;;7.95;4.65;;;;;;;17.09;60.13;99236.75;4423490;32;20085;-88
2023/06/17 01:50:48;;;;;;;6.70;4.18;;;;;;;17.26;60.13;99235.59;4409682;32;20167;-88
2023/06/17 01:53:13;;;;;;;7.32;4.50;;;;;;;17.00;60.11;99236.50;4394486;32;20128;-87
2023/06/17 01:55:39;;;;;;;6.47;4.47;;;;;;;16.89;60.11;99239.84;4421996;32;20086;-88
2023/06/17 01:58:04;;;;;;;7.93;5.22;;;;;;;16.87;60.11;99236.50;4407146;32;20144;-87
2023/06/17 02:00:30;;;;;;;9.07;4.65;;;;;;;16.88;60.11;99239.00;4405504;32;20159;-88
2023/06/17 02:02:55;;;;;;;7.00;4.40;;;;;;;16.93;60.12;99238.72;4400740;32;20426;-87
2023/06/17 02:05:20;;;;;;;8.30;5.25;;;;;;;16.95;60.12;99235.97;4407464;32;31345;-87
2023/06/17 02:07:47;;;;;;;6.75;4.28;;;;;;;16.74;60.10;99231.19;4396845;32;20481;-87
2023/06/17 02:10:12;;;;;;;8.63;4.78;;;;;;;16.78;60.11;99226.56;4397200;32;20093;-88
2023/06/17 02:12:38;;;;;;;8.68;5.03;;;;;;;16.72;60.10;99232.22;4409596;32;20152;-87
2023/06/17 02:15:04;;;;;;;10.95;5.07;;;;;;;16.66;60.10;99230.84;4422932;32;26252;-86
2023/06/17 02:17:29;;;;;;;9.75;5.30;;;;;;;16.67;60.09;99235.16;4407241;32;20478;-87
2023/06/17 02:19:54;;;;;;;7.35;4.25;;;;;;;16.65;60.10;99239.66;4407435;32;20148;-87
2023/06/17 02:22:20;;;;;;;8.45;4.90;;;;;;;16.55;60.10;99230.66;4407206;32;20141;-87
2023/06/17 02:24:46;;;;;;;7.20;4.75;;;;;;;16.56;60.10;99235.84;4404367;32;20380;-86
2023/06/17 02:27:12;;;;;;;6.10;4.50;;;;;;;16.56;60.09;99241.09;4409496;32;20529;-86
2023/06/17 02:29:37;;;;;;;9.23;4.60;;;;;;;16.46;60.08;99236.50;4393053;32;20147;-87
2023/06/17 02:32:03;;;;;;;8.82;4.80;;;;;;;16.38;60.08;99242.28;4399622;32;20440;-88
2023/06/17 02:34:29;;;;;;;10.07;5.43;;;;;;;16.49;60.09;99241.56;4420901;32;20093;-88
2023/06/17 02:36:56;;;;;;;7.25;5.07;;;;;;;16.52;60.09;99246.63;4423425;32;20147;-88
2023/06/17 02:39:22;;;;;;;6.95;4.47;;;;;;;16.55;60.10;99247.25;4406730;32;20124;-86
2023/06/17 02:41:47;;;;;;;8.68;4.03;;;;;;;16.53;60.09;99246.53;4402088;32;20379;-87
2023/06/17 02:44:13;;;;;;;7.75;4.43;;;;;;;16.55;60.09;99246.41;4409299;32;20086;-87
2023/06/17 02:46:38;;;;;;;9.73;4.68;;;;;;;16.53;60.09;99249.16;4396499;32;20119;-87
2023/06/17 02:49:04;;;;;;;8.40;4.80;;;;;;;16.40;60.09;99264.03;4383857;32;20711;-85
2023/06/17 02:51:29;;;;;;;7.20;4.72;;;;;;;16.41;60.09;99259.63;4401318;32;33824;-87
2023/06/17 02:53:55;;;;;;;9.38;4.75;;;;;;;16.35;60.08;99266.09;4423147;32;20350;-86
2023/06/17 02:56:20;;;;;;;7.57;4.72;;;;;;;16.34;60.09;99258.31;4393760;32;20184;-86
2023/06/17 02:58:45;;;;;;;7.20;4.60;;;;;;;16.47;60.10;99256.59;4391918;32;20098;-86
2023/06/17 03:01:12;;;;;;;8.20;4.87;;;;;;;16.41;60.09;99265.72;4388687;32;25885;-86
2023/06/17 03:03:41;;;;;;;7.45;4.75;;;;;;;16.37;60.08;99258.97;4408983;32;20474;-86
2023/06/17 03:06:07;;;;;;;7.43;4.50;;;;;;;16.38;60.08;99262.44;4394504;32;20116;-86
2023/06/17 03:08:33;;;;;;;7.82;4.85;;;;;;;16.51;60.09;99263.31;4404205;32;20106;-86
2023/06/17 03:10:59;;;;;;;6.75;4.37;;;;;;;16.52;60.09;99265.84;4387053;32;20132;-86
2023/06/17 03:13:25;;;;;;;7.53;5.00;;;;;;;16.40;60.09;99265.81;4400730;32;20136;-86
2023/06/17 03:15:51;;;;;;;10.50;4.72;;;;;;;16.52;60.09;99265.00;4408929;32;20094;-86
2023/06/17 03:18:16;;;;;;;7.30;4.53;;;;;;;16.55;60.09;99278.78;4422134;32;20098;-86
2023/06/17 03:20:42;;;;;;;6.28;4.47;;;;;;;16.66;60.10;99274.66;4395939;32;20447;-86
2023/06/17 03:23:08;;;;;;;10.32;4.62;;;;;;;16.62;60.10;99271.38;4408570;32;20170;-86
2023/06/17 03:25:34;;;;;;;7.62;4.45;;;;;;;16.53;60.09;99270.16;4406414;32;20090;-86
2023/06/17 03:28:02;;;;;;;7.62;4.53;;;;;;;16.52;60.09;99272.91;4403797;32;20141;-86
2023/06/17 03:30:28;;;;;;;8.20;5.00;;;;;;;16.68;60.09;99272.78;4399377;32;20168;-87
2023/06/17 03:32:57;;;;;;;9.10;4.85;;;;;;;16.86;60.11;99275.06;4420448;32;20086;-86
2023/06/17 03:35:22;;;;;;;6.18;4.57;;;;;;;16.97;60.12;99279.63;4396757;32;20505;-87
2023/06/17 03:37:48;;;;;;;6.82;4.93;;;;;;;16.63;60.10;99283.56;4405972;32;20144;-86
2023/06/17 03:40:13;;;;;;;7.87;4.68;;;;;;;16.80;60.11;99280.75;4412436;32;20644;-86
2023/06/17 03:42:39;;;;;;;6.20;4.70;;;;;;;16.76;60.10;99283.66;4405542;32;28759;-86
2023/06/17 03:45:05;;;;;;;11.70;4.97;;;;;;;16.77;60.11;99283.53;4388582;32;20181;-86
2023/06/17 03:47:30;;;;;;;5.95;4.28;;;;;;;16.74;60.10;99288.16;4393169;32;20148;-86
2023/06/17 03:49:56;;;;;;;10.07;4.37;;;;;;;16.72;60.10;99293.53;4417324;32;20082;-86
2023/06/17 03:52:21;;;;;;;8.98;4.78;;;;;;;16.76;60.10;99291.53;4395500;32;20156;-86
2023/06/17 03:54:47;;;;;;;9.13;5.00;;;;;;;16.79;60.11;99286.06;4407765;32;20842;-87
2023/06/17 03:57:12;;;;;;;7.22;4.43;;;;;;;16.74;60.10;99290.78;4407451;32;20158;-87
2023/06/17 03:59:37;;;;;;;6.97;4.75;;;;;;;16.95;60.11;99293.81;4423713;32;33790;-87
2023/06/17 04:02:03;;;;;;;8.25;4.78;;;;;;;16.90;60.11;99303.78;4424302;32;20108;-86
2023/06/17 04:04:32;;;;;;;6.90;4.70;;;;;;;16.75;60.10;99298.56;4410546;32;20089;-86
2023/06/17 04:06:57;;;;;;;7.40;4.10;;;;;;;16.95;60.12;99299.91;4424524;32;20140;-86
2023/06/17 04:09:23;;;;;;;5.80;4.22;;;;;;;17.10;60.12;99296.28;4407851;32;20125;-86
2023/06/17 04:11:48;;;;;;;7.07;4.10;;;;;;;17.16;60.13;99293.25;4421312;32;20164;-86
2023/06/17 04:14:13;;;;;;;8.18;5.05;;;;;;;17.08;60.12;99297.34;4408005;32;20109;-87
2023/06/17 04:16:41;;;;;;;7.70;4.70;;;;;;;17.18;60.12;99290.50;4403430;32;20117;-87
2023/06/17 04:19:26;;;;;;;6.70;4.18;;;;;;;17.33;60.13;99297.41;4391563;32;20105;-87
2023/06/17 04:21:51;;;;;;;8.88;4.15;;;;;;;17.55;60.15;99309.13;4407800;32;20116;-87
2023/06/17 04:24:16;;;;;;;7.10;4.80;;;;;;;17.55;60.15;99309.13;4402786;32;20132;-88
2023/06/17 04:26:44;;;;;;;6.40;4.32;;;;;;;17.66;60.15;99314.47;4423197;32;35055;-88
2023/06/17 04:29:11;;;;;;;8.88;4.70;;;;;;;17.78;60.14;99308.44;4424150;32;20490;-88
2023/06/17 04:31:40;;;;;;;8.68;4.80;;;;;;;17.94;60.17;99303.75;4424410;32;20105;-88
2023/06/17 04:34:05;;;;;;;6.32;4.57;;;;;;;17.98;60.17;99305.25;4410554;32;20120;-88
2023/06/17 04:36:30;;;;;;;6.70;4.12;;;;;;;18.06;60.17;99302.94;4395264;32;20094;-88
2023/06/17 04:38:56;;;;;;;5.62;4.00;;;;;;;18.22;60.18;99313.25;4405353;32;20152;-87
2023/06/17 04:41:21;;;;;;;7.60;4.30;;;;;;;18.21;60.17;99306.25;4398417;32;20141;-88
2023/06/17 04:43:48;;;;;;;6.53;4.03;;;;;;;18.25;60.19;99314.81;4406265;32;20123;-87
2023/06/17 04:46:17;;;;;;;7.47;4.97;;;;;;;18.37;60.20;99309.50;4410016;32;20452;-88
2023/06/17 04:48:43;;;;;;;6.85;4.37;;;;;;;18.31;60.20;99309.94;4410026;32;20085;-88
2023/06/17 04:51:09;;;;;;;6.80;4.68;;;;;;;18.24;60.19;99315.75;4407230;32;20159;-88
2023/06/17 04:53:38;;;;;;;8.48;4.53;;;;;;;18.17;60.18;99317.13;4406343;32;20101;-89
2023/06/17 04:56:04;;;;;;;7.22;4.78;;;;;;;18.01;60.17;99314.75;4397849;32;20591;-88
2023/06/17 04:58:30;;;;;;;7.32;4.93;;;;;;;18.01;60.17;99312.09;4410454;32;20102;-87
2023/06/17 05:00:55;;;;;;;7.28;4.57;;;;;;;18.12;60.18;99314.81;4409760;32;20466;-86
2023/06/17 05:03:20;;;;;;;8.48;4.97;;;;;;;18.10;60.18;99312.28;4410019;32;20109;-86
2023/06/17 05:05:46;;;;;;;5.57;3.97;;;;;;;18.22;60.18;99315.87;4423811;32;21387;-86
2023/06/17 05:08:11;;;;;;;9.65;4.65;;;;;;;18.26;60.19;99319.12;4409131;32;20153;-86
2023/06/17 05:10:36;;;;;;;7.00;4.70;;;;;;;18.30;60.18;99310.06;4409863;32;25201;-86
2023/06/17 05:13:02;;;;;;;5.62;4.25;;;;;;;18.33;60.19;99301.94;4423797;32;20136;-85
2023/06/17 05:15:27;;;;;;;7.30;4.78;;;;;;;18.34;60.19;99314.16;4395064;32;20138;-86
2023/06/17 05:17:53;;;;;;;8.48;4.75;;;;;;;18.36;60.18;99317.53;4392779;32;20094;-87
2023/06/17 05:20:18;;;;;;;6.00;4.45;;;;;;;18.58;60.20;99319.47;4407394;32;20463;-86
2023/06/17 05:22:44;;;;;;;9.07;4.25;;;;;;;18.67;60.20;99319.66;4392259;32;25472;-85
2023/06/17 05:25:09;;;;;;;9.50;5.12;;;;;;;18.74;60.21;99317.47;4424075;32;20399;-86
2023/06/17 05:27:35;;;;;;;6.30;4.32;;;;;;;18.81;60.21;99320.47;4396570;32;20389;-86
2023/06/17 05:30:00;;;;;;;7.20;4.60;;;;;;;18.83;60.21;99318.56;4384531;32;27350;-87
2023/06/17 05:32:25;;;;;;;6.75;4.37;;;;;;;18.79;60.21;99323.22;4404835;32;20085;-85
2023/06/17 05:34:51;;;;;;;10.27;4.78;;;;;;;18.67;60.20;99327.56;4407331;32;20403;-86
2023/06/17 05:37:17;;;;;;;9.75;5.30;;;;;;;18.67;60.20;99334.66;4404585;32;21520;-86
2023/06/17 05:39:44;;;;;;;7.85;4.20;;;;;;;18.76;60.20;99330.53;4423977;32;20136;-85
2023/06/17 05:42:10;;;;;;;8.93;5.18;;;;;;;18.86;60.21;99328.91;4397475;32;20085;-85
2023/06/17 05:44:35;;;;;;;7.07;4.03;;;;;;;18.79;60.21;99335.56;4381737;32;20162;-85
2023/06/17 05:47:01;;;;;;;8.38;4.93;;;;;;;18.80;60.21;99332.81;4414858;32;35443;-86
2023/06/17 05:49:26;;;;;;;6.75;4.80;;;;;;;18.92;60.21;99333.72;4407003;32;20134;-85
2023/06/17 05:51:51;;;;;;;6.57;4.78;;;;;;;18.93;60.22;99338.06;4389871;32;20757;-85
2023/06/17 05:54:17;;;;;;;8.55;4.45;;;;;;;19.16;60.24;99336.34;4397155;32;20122;-83
2023/06/17 05:56:42;;;;;;;8.43;4.55;;;;;;;19.12;60.23;99340.16;4392753;32;20156;-86
2023/06/17 05:59:08;;;;;;;6.32;4.53;;;;;;;19.10;60.23;99337.66;4393565;32;20713;-87
2023/06/17 06:01:33;;;;;;;9.18;5.12;;;;;;;19.15;60.23;99343.41;4395146;32;34620;-87
2023/06/17 06:03:58;;;;;;;8.10;4.37;;;;;;;19.37;60.24;99344.47;4391779;32;22553;-87
2023/06/17 06:06:24;;;;;;;7.75;4.37;;;;;;;19.41;60.25;99340.66;4402883;32;27745;-88
2023/06/17 06:08:50;;;;;;;8.68;4.40;;;;;;;19.20;60.23;99348.38;4386019;32;20113;-86
2023/06/17 06:11:15;;;;;;;9.65;4.37;;;;;;;19.21;60.23;99336.88;4407958;32;20116;-86
2023/06/17 06:13:41;;;;;;;7.70;4.43;;;;;;;19.37;60.24;99337.41;4393338;32;20150;-86
2023/06/17 06:16:06;;;;;;;9.07;4.32;;;;;;;19.65;60.26;99341.50;4374914;32;33825;-86
2023/06/17 06:18:32;;;;;;;6.12;4.25;;;;;;;19.74;60.26;99345.22;4417898;32;20153;-85
2023/06/17 06:20:57;;;;;;;5.87;4.15;;;;;;;19.39;60.25;99337.28;4387581;32;20491;-85
2023/06/17 06:23:22;;;;;;;7.40;4.37;;;;;;;19.52;60.25;99336.25;4420767;32;35324;-85
2023/06/17 06:25:48;;;;;;;6.53;3.80;;;;;;;19.65;60.26;99332.72;4383234;32;20102;-85
2023/06/17 06:28:13;;;;;;;6.90;4.70;;;;;;;19.75;60.25;99328.41;4422014;32;20132;-84
2023/06/17 06:30:39;;;;;;;10.23;4.85;;;;;;;19.79;60.27;99328.06;4405616;32;20098;-85
2023/06/17 06:33:04;;;;;;;7.07;4.00;;;;;;;19.98;60.28;99330.13;4421217;32;20113;-84
2023/06/17 06:35:30;;;;;;;7.82;4.68;;;;;;;20.15;60.28;99326.19;4408174;32;20193;-84
2023/06/17 06:37:55;;;;;;;6.95;4.65;;;;;;;20.27;60.29;99316.44;4392771;32;20106;-83
2023/06/17 06:40:21;;;;;;;6.20;4.10;;;;;;;20.31;60.29;99318.72;4401347;32;29336;-84
2023/06/17 06:42:46;;;;;;;8.23;5.25;;;;;;;20.51;60.30;99322.47;4407329;32;20168;-82
2023/06/17 06:45:12;;;;;;;5.87;3.33;;;;;;;20.73;60.32;99318.94;4392793;32;20118;-83
2023/06/17 06:47:37;;;;;;;7.93;4.55;;;;;;;21.05;60.33;99319.78;4406642;32;20129;-84
2023/06/17 06:50:03;;;;;;;9.50;4.32;;;;;;;21.21;60.34;99321.19;4421773;32;20130;-84
2023/06/17 06:52:28;;;;;;;9.00;4.30;;;;;;;21.14;60.33;99321.72;4421755;32;20116;-82
2023/06/17 06:54:53;;;;;;;5.85;4.22;;;;;;;21.17;60.33;99327.72;4407480;32;20119;-84
2023/06/17 06:57:19;;;;;;;8.93;4.47;;;;;;;21.18;60.34;99332.88;4392534;32;20132;-84
2023/06/17 06:59:44;;;;;;;5.47;3.90;;;;;;;21.21;60.34;99331.78;4398621;32;20116;-84
2023/06/17 07:02:10;;;;;;;9.52;4.43;;;;;;;21.38;60.35;99331.25;4420378;32;20439;-82
2023/06/17 07:04:36;;;;;;;9.23;4.62;;;;;;;21.50;60.36;99329.38;4395033;32;20134;-84
2023/06/17 07:07:02;;;;;;;7.53;4.37;;;;;;;21.74;60.36;99335.25;4404449;32;20130;-83
2023/06/17 07:09:28;;;;;;;6.43;3.87;;;;;;;21.68;60.36;99333.97;4414615;32;20108;-83
2023/06/17 07:11:53;;;;;;;7.18;4.00;;;;;;;21.88;60.38;99332.28;4404874;32;20102;-83
2023/06/17 07:14:19;;;;;;;7.05;3.62;;;;;;;22.14;60.39;99335.38;4414485;32;24296;-84
2023/06/17 07:16:44;;;;;;;6.37;3.75;;;;;;;22.33;60.40;99332.81;4423387;32;20101;-84
2023/06/17 07:19:09;;;;;;;9.95;4.37;;;;;;;22.47;60.40;99334.25;4423824;32;20145;-84
2023/06/17 07:21:35;;;;;;;7.62;3.85;;;;;;;22.67;60.43;99329.84;4417149;32;20170;-84
2023/06/17 07:24:00;;;;;;;6.78;3.40;;;;;;;23.03;60.44;99325.75;4409751;32;20383;-84
2023/06/17 07:26:26;;;;;;;4.78;3.22;;;;;;;22.95;60.42;99322.97;4423379;32;20106;-84
2023/06/17 07:28:51;;;;;;;4.62;3.60;;;;;;;22.90;60.43;99331.31;4406473;32;21398;-84
2023/06/17 07:31:16;;;;;;;7.07;3.60;;;;;;;22.74;60.42;99320.38;4407247;32;20134;-83
2023/06/17 07:33:42;;;;;;;8.38;4.12;;;;;;;22.60;60.42;99315.47;4407097;32;20189;-84
2023/06/17 07:36:07;;;;;;;7.25;3.70;;;;;;;22.78;60.42;99327.09;4420855;32;21231;-84
2023/06/17 07:38:33;;;;;;;5.00;3.33;;;;;;;22.81;60.43;99323.31;4423597;32;20102;-84
2023/06/17 07:41:01;;;;;;;6.03;3.70;;;;;;;23.04;60.44;99321.28;4409348;32;20089;-84
2023/06/17 07:43:27;;;;;;;5.30;3.62;;;;;;;23.31;60.45;99323.25;4394238;32;20147;-84
2023/06/17 07:45:52;;;;;;;5.05;3.42;;;;;;;23.31;60.45;99331.22;4420627;32;24836;-82
2023/06/17 07:48:17;;;;;;;4.53;3.12;;;;;;;23.30;60.45;99317.09;4394013;32;20121;-83
2023/06/17 07:50:43;;;;;;;6.55;3.28;;;;;;;23.47;60.45;99319.06;4405036;32;20158;-84
2023/06/17 07:53:09;;;;;;;4.82;3.70;;;;;;;23.66;60.47;99312.91;4412828;32;20102;-83
2023/06/17 07:55:34;;;;;;;5.70;3.20;;;;;;;23.56;60.46;99318.22;4405035;32;20574;-84
2023/06/17 07:58:00;;;;;;;4.62;3.20;;;;;;;23.67;60.47;99319.91;4389672;32;20149;-84
2023/06/17 08:00:26;;;;;;;6.57;3.80;;;;;;;23.71;60.47;99315.97;4406499;32;20095;-82
2023/06/17 08:02:52;;;;;;;6.35;3.10;;;;;;;23.68;60.48;99310.13;4416121;32;20124;-85
2023/06/17 08:05:17;;;;;;;4.85;3.10;;;;;;;23.80;60.48;99324.91;4392959;32;31847;-84
2023/06/17 08:07:42;;;;;;;3.97;3.17;;;;;;;23.70;60.48;99314.31;4388756;32;26475;-84
2023/06/17 08:10:08;;;;;;;4.18;3.10;;;;;;;23.76;60.48;99321.69;4423009;32;20084;-84
2023/06/17 08:12:33;;;;;;;4.43;3.17;;;;;;;23.54;60.46;99317.50;4423303;32;20473;-84
2023/06/17 08:14:59;;;;;;;4.53;3.20;;;;;;;23.35;60.45;99320.16;4408611;32;20417;-84
2023/06/17 08:17:24;;;;;;;6.28;3.80;;;;;;;23.38;60.46;99308.41;4381610;32;20382;-84
2023/06/17 08:19:50;;;;;;;8.07;3.70;;;;;;;23.25;60.45;99317.53;4420926;32;20431;-84
2023/06/17 08:22:15;;;;;;;6.10;3.58;;;;;;;23.25;60.45;99308.72;4396719;32;20439;-84
2023/06/17 08:24:41;;;;;;;7.68;3.30;;;;;;;23.40;60.45;99312.59;4406767;32;20446;-84
2023/06/17 08:27:09;;;;;;;4.53;3.47;;;;;;;23.45;60.46;99321.03;4400254;32;20086;-84
2023/06/17 08:29:35;;;;;;;7.32;3.20;;;;;;;23.50;60.46;99323.25;4396489;32;20102;-84
2023/06/17 08:32:00;;;;;;;4.80;3.47;;;;;;;23.58;60.47;99316.25;4406704;32;20157;-84
2023/06/17 08:34:30;;;;;;;5.68;3.17;;;;;;;23.65;60.47;99315.69;4419922;32;20542;-84
2023/06/17 08:36:55;;;;;;;;;;;;;;;23.76;60.48;99319.03;4406834;32;20439;-84
2023/06/17 08:39:21;;;;;;;4.93;3.13;;;;;;;23.88;60.49;99315.22;4405529;32;30270;-84
2023/06/17 08:41:46;;;;;;;5.35;3.55;;;;;;;24.04;60.48;99313.78;4406247;32;20102;-83
2023/06/17 08:44:13;;;;;;;5.72;4.15;;;;;;;24.16;60.49;99315.28;4405938;32;20149;-84
2023/06/17 08:46:39;;;;;;;4.65;3.47;;;;;;;24.55;60.52;99310.62;4381203;32;20148;-84
2023/06/17 08:49:04;;;;;;;3.50;3.17;;;;;;;24.61;60.52;99311.88;4419875;32;20176;-84
2023/06/17 08:51:29;;;;;;;5.55;3.53;;;;;;;24.67;60.52;99306.78;4406373;32;20414;-84
2023/06/17 08:53:55;;;;;;;8.73;3.20;;;;;;;24.62;60.52;99313.56;4419806;32;20089;-84
2023/06/17 08:56:21;;;;;;;4.75;2.87;;;;;;;24.77;60.53;99314.69;4408788;32;20093;-83
2023/06/17 08:58:47;;;;;;;5.80;3.87;;;;;;;24.90;60.53;99306.38;4407191;32;32963;-83
2023/06/17 09:01:12;;;;;;;4.05;3.15;;;;;;;25.09;60.55;99303.59;4408896;32;20139;-83
2023/06/17 09:03:39;;;;;;;4.72;3.28;;;;;;;25.23;60.56;99313.69;4408445;32;20161;-82
2023/06/17 09:06:24;;;;;;;4.30;2.55;;;;;;;25.42;60.56;99317.19;4393610;32;20102;-83
2023/06/17 09:08:50;;;;;;;3.08;2.50;;;;;;;25.59;60.58;99322.50;4408111;32;20153;-82
2023/06/17 09:11:16;;;;;;;6.03;3.10;;;;;;;25.75;60.58;99319.12;4422603;32;20133;-85
2023/06/17 09:13:41;;;;;;;4.07;3.00;;;;;;;26.09;60.59;99313.00;4405865;32;20151;-84
2023/06/17 09:16:07;;;;;;;3.47;2.97;;;;;;;26.23;60.60;99309.72;4417026;32;20125;-84
2023/06/17 09:18:33;;;;;;;5.07;3.62;;;;;;;26.64;60.63;99294.75;4392502;32;30589;-84
2023/06/17 09:20:59;;;;;;;5.15;2.42;;;;;;;26.71;60.63;99297.59;4406080;32;20125;-84
2023/06/17 09:23:25;;;;;;;3.67;2.95;;;;;;;26.96;60.65;99296.66;4422155;32;20098;-82
2023/06/17 09:26:03;;;;;;;3.60;2.97;;;;;;;26.79;60.64;99300.31;4422306;32;20399;-84
2023/06/17 09:28:29;;;;;;;4.45;2.92;;;;;;;26.52;60.61;99310.25;4384395;32;20172;-82
2023/06/17 09:30:57;;;;;;;4.82;3.10;;;;;;;26.33;60.61;99313.13;4389661;32;20109;-83
2023/06/17 09:33:23;;;;;;;6.32;2.97;;;;;;;26.40;60.61;99319.53;4409143;32;20113;-83
2023/06/17 09:36:03;;;;;;;5.35;2.87;;;;;;;26.38;60.61;99304.66;4394280;32;20523;-83
2023/06/17 09:38:29;;;;;;;5.05;2.75;;;;;;;26.42;60.62;99324.69;4405934;32;20107;-84
2023/06/17 09:40:54;;;;;;;3.75;2.62;;;;;;;26.48;60.61;99310.69;4405474;32;20129;-84
2023/06/17 09:43:23;;;;;;;3.47;2.70;;;;;;;26.70;60.63;99318.13;4396055;32;20085;-83
2023/06/17 09:45:49;;;;;;;6.07;3.55;;;;;;;26.56;60.63;99310.75;4422415;32;20177;-83
2023/06/17 09:48:17;;;;;;;3.90;2.70;;;;;;;26.61;60.62;99308.44;4395296;32;20105;-84
2023/06/17 09:50:43;;;;;;;5.10;3.22;;;;;;;26.74;60.63;99306.16;4406154;32;20504;-84
2023/06/17 09:53:08;;;;;;;3.60;2.72;;;;;;;26.91;60.64;99307.81;4415616;32;20089;-83
2023/06/17 09:55:34;;;;;;;5.32;2.70;;;;;;;26.87;60.63;99313.66;4395787;32;20108;-84
2023/06/17 09:58:01;;;;;;;6.20;3.42;;;;;;;26.76;60.64;99306.81;4392854;32;20526;-85
2023/06/17 10:00:27;;;;;;;6.80;3.62;;;;;;;26.55;60.63;99306.41;4393790;32;20131;-81
2023/06/17 10:02:53;;;;;;;5.12;3.10;;;;;;;26.71;60.64;99303.78;4406112;32;20487;-82
2023/06/17 10:05:23;;;;;;;4.05;2.90;;;;;;;26.87;60.65;99314.50;4394439;32;20494;-83
2023/06/17 10:07:49;;;;;;;4.68;2.65;;;;;;;27.06;60.65;99307.22;4393309;32;20568;-83
2023/06/17 10:10:17;;;;;;;6.10;2.80;;;;;;;26.95;60.64;99302.16;4407296;32;20093;-86
2023/06/17 10:12:44;;;;;;;6.10;2.72;;;;;;;26.85;60.64;99307.66;4393781;32;20111;-84
2023/06/17 10:15:10;;;;;;;5.60;2.37;;;;;;;27.06;60.65;99307.22;4391818;32;20116;-82
2023/06/17 10:17:37;;;;;;;5.07;2.67;;;;;;;26.96;60.65;99301.16;4388755;32;20132;-82
2023/06/17 10:20:05;;;;;;;6.15;3.15;;;;;;;26.71;60.64;99311.78;4392306;32;20105;-83
2023/06/17 10:22:30;;;;;;;5.18;2.92;;;;;;;26.65;60.63;99317.78;4414155;32;20120;-84
2023/06/17 10:24:56;;;;;;;3.42;2.53;;;;;;;26.55;60.63;99330.44;4392274;32;20442;-84
2023/06/17 10:27:21;;;;;;;4.20;2.90;;;;;;;26.51;60.62;99327.25;4398906;32;20113;-84
2023/06/17 10:29:48;;;;;;;4.18;2.40;;;;;;;26.40;60.62;99321.34;4403243;32;20106;-82
2023/06/17 10:32:20;;;;;;;3.75;2.70;;;;;;;26.18;60.61;99328.06;4401326;32;20117;-83
2023/06/17 10:35:10;;;;;;;6.18;2.65;;;;;;;26.30;60.61;99332.13;4421506;32;20112;-82
2023/06/17 10:37:43;;;;;;;5.78;3.37;;;;;;;26.14;60.60;99338.22;4394532;32;20534;-83
2023/06/17 10:40:27;;;;;;;7.12;3.00;;;;;;;26.12;60.60;99331.37;4422080;32;20141;-82
2023/06/17 10:43:17;;;;;;;4.43;2.67;;;;;;;26.08;60.61;99330.00;4421045;32;20098;-83
2023/06/17 10:45:52;;;;;;;4.43;3.12;;;;;;;26.00;60.61;99334.28;4411887;32;20089;-83
2023/06/17 10:48:27;;;;;;;3.33;2.70;;;;;;;26.25;60.62;99334.41;4391892;32;20141;-82
2023/06/17 10:51:02;;;;;;;3.53;2.60;;;;;;;26.22;60.61;99332.06;4421370;32;20129;-83
2023/06/17 10:53:30;;;;;;;10.27;3.10;;;;;;;26.44;60.62;99326.22;4381241;32;20093;-83
2023/06/17 10:55:56;;;;;;;4.07;2.80;;;;;;;26.70;60.64;99325.28;4409705;32;20086;-83
2023/06/17 10:58:22;;;;;;;4.40;3.08;;;;;;;26.96;60.65;99330.53;4406992;32;20106;-83
2023/06/17 11:00:57;;;;;;;4.00;2.97;;;;;;;27.09;60.65;99325.59;4413409;32;20090;-83
2023/06/17 11:03:23;;;;;;;4.37;2.72;;;;;;;27.11;60.66;99316.41;4407611;32;20164;-83
2023/06/17 11:05:50;;;;;;;4.05;2.85;;;;;;;26.90;60.65;99313.34;4409504;32;20129;-83
2023/06/17 11:08:15;;;;;;;3.87;2.67;;;;;;;26.86;60.64;99314.66;4423290;32;20129;-83
2023/06/17 11:10:41;;;;;;;2.90;2.17;;;;;;;27.05;60.65;99306.41;4422446;32;34541;-83
2023/06/17 11:13:06;;;;;;;4.00;2.50;;;;;;;27.16;60.65;99300.72;4423114;32;20109;-83
2023/06/17 11:15:31;;;;;;;4.90;2.90;;;;;;;27.31;60.66;99306.25;4406956;32;20135;-84
2023/06/17 11:18:01;;;;;;;5.10;2.50;;;;;;;27.47;60.67;99300.06;4418865;32;20494;-84
2023/06/17 11:20:30;;;;;;;4.12;2.55;;;;;;;27.25;60.66;99301.56;4409359;32;20110;-85
2023/06/17 11:22:55;;;;;;;7.12;2.67;;;;;;;27.03;60.66;99300.37;4409386;32;20146;-85
2023/06/17 11:25:21;;;;;;;4.15;2.37;;;;;;;27.00;60.65;99305.22;4409256;32;23898;-85
2023/06/17 11:27:46;;;;;;;5.28;2.20;;;;;;;27.19;60.66;99316.41;4423396;32;20378;-85
2023/06/17 11:30:13;;;;;;;3.22;2.35;;;;;;;26.87;60.65;99316.34;4410605;32;20097;-85